Time;durP1;ratioP1;P1;durP2;ratioP2;P2;SDS_P1;SDS_P2;PMS_P1;PMS_P2;Temp;Humidity;BMP_temperature;BMP_pressure;BME280_temperature;BME280_humidity;BME280_pressure;Samples;Min_cycle;Max_cycle;Signal;HPM_P1;HPM_P2
2022/05/31 00:00:21;;;;;;;19.90;7.70;;;;;;;8.44;81.80;101183.91;5066124;28;20123;-80
2022/05/31 00:02:47;;;;;;;20.23;7.28;;;;;;;8.44;82.01;101188.38;5065622;28;20108;-80
2022/05/31 00:05:13;;;;;;;18.80;7.38;;;;;;;8.44;81.43;101191.06;5057610;28;20033;-80
2022/05/31 00:07:40;;;;;;;20.40;7.60;;;;;;;8.43;81.53;101190.19;5047691;28;20087;-80
2022/05/31 00:10:08;;;;;;;23.27;8.52;;;;;;;8.39;81.28;101188.66;5066097;28;20063;-80
2022/05/31 00:12:34;;;;;;;20.35;8.23;;;;;;;8.35;81.07;101185.28;5057588;28;20091;-80
2022/05/31 00:15:00;;;;;;;20.48;7.90;;;;;;;8.32;81.57;101182.78;5056208;28;20492;-80
2022/05/31 00:17:26;;;;;;;18.67;7.20;;;;;;;8.32;81.06;101188.16;5059227;28;20032;-80
2022/05/31 00:19:52;;;;;;;19.85;7.45;;;;;;;8.31;80.60;101183.72;5077441;28;20089;-80
2022/05/31 00:22:23;;;;;;;18.70;7.75;;;;;;;8.28;81.03;101183.91;5057198;28;20016;-80
2022/05/31 00:24:49;;;;;;;18.27;7.07;;;;;;;8.28;80.29;101181.25;5059380;28;20476;-80
2022/05/31 00:27:16;;;;;;;22.60;7.90;;;;;;;8.28;80.08;101181.25;5072061;28;20020;-80
2022/05/31 00:29:42;;;;;;;20.08;7.68;;;;;;;8.26;80.67;101183.16;5070698;28;20032;-80
2022/05/31 00:32:09;;;;;;;19.33;7.32;;;;;;;8.22;81.00;101190.50;5062942;28;20020;-80
2022/05/31 00:34:37;;;;;;;18.27;6.93;;;;;;;8.20;80.46;101183.53;5067941;28;20059;-80
2022/05/31 00:37:03;;;;;;;20.08;8.32;;;;;;;8.19;80.84;101190.66;5042199;28;20041;-80
2022/05/31 00:39:28;;;;;;;18.30;6.68;;;;;;;8.18;80.80;101183.56;5060200;28;20111;-80
2022/05/31 00:42:08;;;;;;;18.33;7.05;;;;;;;8.21;80.82;101183.44;5061856;28;20108;-80
2022/05/31 00:44:35;;;;;;;18.58;7.00;;;;;;;8.17;81.72;101186.34;5056726;28;20031;-80
2022/05/31 00:47:06;;;;;;;18.77;8.18;;;;;;;8.15;82.01;101189.13;5069844;28;20115;-80
2022/05/31 00:49:56;;;;;;;22.98;8.18;;;;;;;8.11;82.04;101192.06;5069043;28;20115;-80
2022/05/31 00:52:29;;;;;;;20.00;8.50;;;;;;;8.10;82.48;101190.34;5035689;28;20055;-80
2022/05/31 00:55:06;;;;;;;19.40;7.78;;;;;;;8.07;82.44;101190.50;5060969;28;20028;-80
2022/05/31 00:57:34;;;;;;;20.50;8.73;;;;;;;8.05;82.53;101194.16;5066188;28;20025;-80
2022/05/31 01:00:09;;;;;;;20.98;8.38;;;;;;;8.02;82.99;101191.66;5067424;28;20031;-80
2022/05/31 01:02:36;;;;;;;20.27;8.45;;;;;;;8.00;82.98;101190.88;5051212;28;20053;-80
2022/05/31 01:05:04;;;;;;;20.52;7.78;;;;;;;7.96;82.70;101197.34;5054742;28;20032;-80
2022/05/31 01:07:30;;;;;;;21.63;8.98;;;;;;;7.93;83.01;101194.84;5052400;28;20024;-80
2022/05/31 01:09:56;;;;;;;20.13;9.05;;;;;;;7.92;83.22;101193.13;5060412;28;20086;-80
2022/05/31 01:12:22;;;;;;;21.23;8.35;;;;;;;7.89;83.37;101187.94;5058865;28;20041;-80
2022/05/31 01:14:48;;;;;;;21.00;10.02;;;;;;;7.86;83.36;101180.97;5057487;28;20028;-80
2022/05/31 01:17:19;;;;;;;21.08;9.90;;;;;;;7.89;83.52;101179.91;5057838;28;20021;-80
2022/05/31 01:19:58;;;;;;;21.27;10.35;;;;;;;7.88;83.45;101180.88;5073764;28;20480;-80
2022/05/31 01:22:30;;;;;;;22.75;9.93;;;;;;;7.84;83.13;101179.31;5056660;28;20486;-80
2022/05/31 01:25:27;;;;;;;20.55;10.20;;;;;;;7.84;82.82;101179.31;5068582;28;20024;-80
2022/05/31 01:28:14;;;;;;;22.30;9.35;;;;;;;7.83;83.14;101174.91;5057789;28;20114;-80
2022/05/31 01:30:54;;;;;;;21.52;9.38;;;;;;;7.82;83.44;101167.84;5049435;28;20021;-80
2022/05/31 01:33:29;;;;;;;22.65;9.45;;;;;;;7.79;83.46;101173.34;5056602;28;20033;-80
2022/05/31 01:36:01;;;;;;;26.27;10.05;;;;;;;7.74;83.60;101172.75;5068866;28;20025;-80
2022/05/31 01:38:39;;;;;;;21.95;9.30;;;;;;;7.69;83.27;101171.19;5058127;28;20036;-80
2022/05/31 01:41:35;;;;;;;20.98;10.80;;;;;;;7.68;83.58;101171.28;5050574;28;20029;-80
2022/05/31 01:44:05;;;;;;;21.33;10.05;;;;;;;7.67;83.55;101172.22;5058520;28;20132;-81
2022/05/31 01:46:33;;;;;;;21.67;8.73;;;;;;;7.63;83.60;101176.91;5058771;28;20123;-81
2022/05/31 01:49:01;;;;;;;21.15;9.10;;;;;;;7.60;83.28;101162.81;5062050;28;20032;-80
2022/05/31 01:51:26;;;;;;;22.15;9.07;;;;;;;7.54;83.29;101174.75;5049395;28;20036;-80
2022/05/31 01:53:54;;;;;;;20.05;8.75;;;;;;;7.52;83.82;101165.91;5056477;28;20029;-80
2022/05/31 01:56:21;;;;;;;21.42;8.60;;;;;;;7.53;83.54;101170.34;5058301;28;20025;-80
2022/05/31 01:58:49;;;;;;;22.10;9.27;;;;;;;7.53;83.36;101164.97;5067642;28;20093;-80
2022/05/31 02:01:14;;;;;;;20.33;9.25;;;;;;;7.55;83.86;101168.41;5066598;28;20027;-80
2022/05/31 02:03:41;;;;;;;20.42;9.15;;;;;;;7.53;84.12;101168.50;5043553;28;20120;-81
2022/05/31 02:06:24;;;;;;;23.25;9.50;;;;;;;7.55;83.77;101165.75;5062602;28;20035;-81
2022/05/31 02:08:49;;;;;;;18.63;8.88;;;;;;;7.52;84.15;101164.09;5050625;28;20511;-80
2022/05/31 02:11:14;;;;;;;20.95;9.18;;;;;;;7.57;84.18;101160.31;5066591;28;20147;-80
2022/05/31 02:13:40;;;;;;;19.65;8.25;;;;;;;7.56;84.81;101163.97;5047581;28;20051;-80
2022/05/31 02:16:05;;;;;;;20.30;9.23;;;;;;;7.54;84.77;101161.38;5049414;28;20405;-80
2022/05/31 02:21:14;;;;;;;19.02;8.40;;;;;;;7.66;85.60;101159.81;5067175;28;20505;-80
2022/05/31 02:23:39;;;;;;;22.35;8.90;;;;;;;7.67;85.11;101157.06;5057916;28;20145;-80
2022/05/31 02:26:05;;;;;;;20.83;8.98;;;;;;;7.73;85.85;101153.19;5055743;28;20373;-80
2022/05/31 02:28:30;;;;;;;19.77;8.18;;;;;;;7.77;85.35;101151.16;5052521;28;20029;-80
2022/05/31 02:30:55;;;;;;;19.15;8.45;;;;;;;7.80;85.82;101151.00;5057806;28;20028;-80
2022/05/31 02:33:20;;;;;;;21.30;9.20;;;;;;;7.81;85.62;101152.72;5062945;28;20032;-80
2022/05/31 02:35:46;;;;;;;20.38;9.10;;;;;;;7.84;85.93;101147.19;5051914;28;20853;-80
2022/05/31 02:38:12;;;;;;;20.85;8.60;;;;;;;7.85;86.18;101149.78;5063568;28;20051;-80
2022/05/31 02:40:37;;;;;;;21.60;8.52;;;;;;;7.91;85.45;101145.91;5062893;28;20480;-80
2022/05/31 02:43:02;;;;;;;21.85;8.68;;;;;;;7.93;86.06;101143.13;5062215;28;20100;-80
2022/05/31 02:45:27;;;;;;;20.17;9.00;;;;;;;7.94;85.32;101145.72;5068102;28;20035;-80
2022/05/31 02:47:53;;;;;;;20.17;8.85;;;;;;;7.97;84.48;101148.22;5056285;28;20421;-80
2022/05/31 02:50:18;;;;;;;19.45;8.32;;;;;;;7.99;85.08;101140.94;5078425;28;20029;-80
2022/05/31 02:52:43;;;;;;;20.65;8.15;;;;;;;8.00;84.61;101142.69;5059165;28;20036;-81
2022/05/31 02:55:09;;;;;;;19.50;8.52;;;;;;;8.02;84.37;101140.81;5056812;28;20150;-81
2022/05/31 02:57:34;;;;;;;18.73;8.20;;;;;;;8.02;84.90;101139.91;5059321;28;20569;-80
2022/05/31 02:59:59;;;;;;;21.48;8.55;;;;;;;8.03;84.59;101137.16;5059165;28;20120;-80
2022/05/31 03:02:24;;;;;;;19.30;8.60;;;;;;;8.03;84.46;101139.81;5069269;28;20618;-80
2022/05/31 03:04:50;;;;;;;22.85;9.55;;;;;;;8.02;84.25;101132.78;5065485;28;20029;-80
2022/05/31 03:07:15;;;;;;;18.20;7.93;;;;;;;8.04;84.18;101136.22;5067782;28;20043;-80
2022/05/31 03:09:40;;;;;;;20.13;8.15;;;;;;;8.05;84.57;101140.63;5053067;28;20288;-80
2022/05/31 03:12:11;;;;;;;19.13;8.07;;;;;;;8.03;85.36;101145.19;5054648;28;20040;-80
2022/05/31 03:14:49;;;;;;;18.48;7.07;;;;;;;8.04;85.53;101138.03;5061358;28;20059;-80
2022/05/31 03:17:25;;;;;;;19.65;8.02;;;;;;;8.05;85.08;101135.28;5068231;28;20042;-80
2022/05/31 03:19:57;;;;;;;20.63;8.27;;;;;;;8.06;85.83;101133.44;5060884;28;20071;-80
2022/05/31 03:22:27;;;;;;;22.23;9.13;;;;;;;8.05;85.71;101127.25;5059400;28;20021;-80
2022/05/31 03:25:06;;;;;;;19.98;8.88;;;;;;;8.08;86.08;101128.00;5066384;28;20024;-80
2022/05/31 03:27:31;;;;;;;21.75;8.43;;;;;;;8.08;85.06;101128.00;5057830;28;20066;-80
2022/05/31 03:30:00;;;;;;;19.63;8.85;;;;;;;8.11;86.38;101125.13;5050695;28;20094;-80
2022/05/31 03:32:25;;;;;;;21.35;9.27;;;;;;;8.12;85.43;101126.88;5055169;28;20025;-80
2022/05/31 03:34:51;;;;;;;22.15;8.70;;;;;;;8.16;85.90;101115.03;5061632;28;20025;-81
2022/05/31 03:37:18;;;;;;;21.55;9.13;;;;;;;8.17;86.01;101122.09;5052703;28;20040;-81
2022/05/31 03:39:43;;;;;;;22.77;9.13;;;;;;;8.18;85.62;101113.97;5051659;28;20094;-80
2022/05/31 03:42:08;;;;;;;20.15;8.07;;;;;;;8.18;85.62;101119.31;5067373;28;20446;-81
2022/05/31 03:44:33;;;;;;;20.45;9.07;;;;;;;8.21;85.63;101121.84;5060232;28;20070;-81
2022/05/31 03:47:01;;;;;;;20.35;9.32;;;;;;;8.22;85.80;101122.69;5054089;28;20029;-81
2022/05/31 03:49:26;;;;;;;21.38;9.50;;;;;;;8.20;85.60;101117.44;5066202;28;20024;-80
2022/05/31 03:51:51;;;;;;;20.42;9.07;;;;;;;8.20;86.01;101121.94;5060478;28;20509;-80
2022/05/31 03:54:17;;;;;;;19.98;8.80;;;;;;;8.21;86.32;101123.63;5070354;28;20032;-80
2022/05/31 03:56:42;;;;;;;22.63;8.65;;;;;;;8.19;86.24;101121.06;5069086;28;20380;-80
2022/05/31 03:59:08;;;;;;;20.67;9.80;;;;;;;8.20;86.37;101112.09;5070783;28;20024;-80
2022/05/31 04:01:33;;;;;;;22.20;9.80;;;;;;;8.21;85.85;101118.28;5052242;28;20033;-80
2022/05/31 04:03:59;;;;;;;20.80;8.90;;;;;;;8.23;86.31;101119.94;5075468;28;20027;-80
2022/05/31 04:06:24;;;;;;;20.67;9.07;;;;;;;8.25;86.44;101119.84;5048708;28;20193;-81
2022/05/31 04:08:49;;;;;;;23.85;9.00;;;;;;;8.26;86.34;101113.53;5069241;28;20399;-81
2022/05/31 04:11:16;;;;;;;19.95;8.45;;;;;;;8.28;86.93;101122.31;5065461;28;20040;-81
2022/05/31 04:13:41;;;;;;;20.92;8.52;;;;;;;8.28;86.95;101119.66;5064629;28;20032;-81
2022/05/31 04:16:10;;;;;;;19.40;8.82;;;;;;;8.29;86.96;101118.72;5062952;28;20023;-80
2022/05/31 04:18:37;;;;;;;20.33;9.30;;;;;;;8.28;87.06;101119.66;5071548;28;20039;-80
2022/05/31 04:21:03;;;;;;;20.25;8.85;;;;;;;8.31;86.38;101114.09;5062933;28;20044;-80
2022/05/31 04:26:14;;;;;;;20.42;8.88;;;;;;;8.39;87.26;101119.88;5067580;28;20047;-80
2022/05/31 04:28:39;;;;;;;19.77;9.02;;;;;;;8.42;86.78;101115.28;5074284;28;20021;-80
2022/05/31 04:31:04;;;;;;;19.50;9.75;;;;;;;8.46;86.28;101122.22;5052461;28;20110;-80
2022/05/31 04:33:30;;;;;;;19.23;9.05;;;;;;;8.49;86.99;101117.56;5054139;28;20047;-80
2022/05/31 04:36:12;;;;;;;21.17;8.45;;;;;;;8.52;86.69;101121.84;5062570;28;20063;-80
2022/05/31 04:38:38;;;;;;;20.05;9.30;;;;;;;8.53;86.88;101118.22;5054469;28;20369;-80
2022/05/31 04:41:04;;;;;;;21.73;9.23;;;;;;;8.54;86.17;101117.28;5053901;28;20032;-80
2022/05/31 04:43:30;;;;;;;20.88;9.25;;;;;;;8.60;86.15;101118.72;5048798;28;20248;-80
2022/05/31 04:45:55;;;;;;;20.25;9.68;;;;;;;8.63;85.91;101113.16;5052526;28;20108;-80
2022/05/31 04:48:21;;;;;;;20.88;9.00;;;;;;;8.64;85.75;101114.88;5064476;28;20828;-80
2022/05/31 04:50:46;;;;;;;20.67;8.50;;;;;;;8.64;85.45;101110.41;5070404;28;20526;-80
2022/05/31 04:53:11;;;;;;;22.70;9.30;;;;;;;8.67;86.64;101112.03;5054646;28;20032;-80
2022/05/31 04:55:37;;;;;;;22.27;10.02;;;;;;;8.68;86.71;101111.94;5068184;28;20031;-80
2022/05/31 04:58:03;;;;;;;21.52;9.45;;;;;;;8.71;87.73;101117.09;5051440;28;20028;-80
2022/05/31 05:00:30;;;;;;;19.98;9.52;;;;;;;8.76;87.82;101113.28;5059868;28;20096;-80
2022/05/31 05:02:55;;;;;;;22.00;10.02;;;;;;;8.79;87.09;101108.59;5062218;28;20017;-80
2022/05/31 05:05:20;;;;;;;22.45;10.18;;;;;;;8.83;86.41;101107.44;5050943;28;20025;-80
2022/05/31 05:07:46;;;;;;;23.25;10.95;;;;;;;8.87;86.19;101105.44;5063026;28;20033;-80
2022/05/31 05:10:12;;;;;;;20.98;9.88;;;;;;;8.94;86.08;101108.59;5053896;28;20066;-80
2022/05/31 05:12:38;;;;;;;21.10;9.98;;;;;;;8.99;86.53;101104.69;5058141;28;20123;-80
2022/05/31 05:15:05;;;;;;;20.02;9.63;;;;;;;9.04;87.18;101107.91;5052669;28;20048;-80
2022/05/31 05:17:31;;;;;;;22.05;9.68;;;;;;;9.10;87.41;101107.53;5060587;28;20054;-80
2022/05/31 05:19:56;;;;;;;20.17;9.68;;;;;;;9.14;87.30;101100.16;5069274;28;20029;-80
2022/05/31 05:22:22;;;;;;;23.13;10.77;;;;;;;9.20;87.44;101109.66;5053835;28;20032;-80
2022/05/31 05:24:47;;;;;;;22.30;9.88;;;;;;;9.25;84.26;101100.34;5058866;28;20021;-80
2022/05/31 05:27:12;;;;;;;26.83;10.98;;;;;;;9.31;86.45;101101.75;5062268;28;20048;-80
2022/05/31 05:32:21;;;;;;;20.80;10.18;;;;;;;9.47;85.99;101109.69;5054402;28;20533;-80
2022/05/31 05:34:55;;;;;;;22.35;10.27;;;;;;;9.52;85.54;101106.72;5051217;28;20017;-80
2022/05/31 05:37:21;;;;;;;22.52;11.23;;;;;;;9.59;84.70;101108.03;5059021;28;20040;-80
2022/05/31 05:39:46;;;;;;;26.90;11.75;;;;;;;9.64;86.22;101108.59;5067973;28;20035;-80
2022/05/31 05:42:13;;;;;;;23.70;11.30;;;;;;;9.70;85.63;101113.56;5065827;28;20024;-80
2022/05/31 05:44:38;;;;;;;23.58;12.48;;;;;;;9.73;84.71;101105.31;5052451;28;20083;-80
2022/05/31 05:47:08;;;;;;;23.95;10.95;;;;;;;9.75;82.84;101106.06;5063472;28;20032;-80
2022/05/31 05:49:34;;;;;;;;;;;;;;;9.88;83.36;101107.94;5072533;28;20069;-80
2022/05/31 05:52:01;;;;;;;23.88;12.13;;;;;;;9.88;83.82;101108.81;5076480;28;19917;-80
2022/05/31 05:54:27;;;;;;;22.08;11.10;;;;;;;9.91;83.96;101102.38;5057574;28;20046;-80
2022/05/31 05:56:52;;;;;;;23.92;11.40;;;;;;;9.95;83.56;101109.25;5058309;28;20025;-80
2022/05/31 05:59:20;;;;;;;22.27;10.98;;;;;;;9.95;83.17;101112.78;5054802;28;20020;-80
2022/05/31 06:01:48;;;;;;;24.35;11.20;;;;;;;9.96;83.67;101106.47;5057494;28;20089;-80
2022/05/31 06:04:23;;;;;;;22.38;11.45;;;;;;;9.99;83.99;101108.09;5061502;28;20098;-80
2022/05/31 06:06:56;;;;;;;25.98;11.65;;;;;;;9.97;83.52;101110.00;5065585;28;20059;-80
2022/05/31 06:09:23;;;;;;;22.75;11.88;;;;;;;9.95;83.68;101099.38;5085899;28;20030;-80
2022/05/31 06:12:13;;;;;;;24.20;12.73;;;;;;;9.99;83.89;101105.41;5084909;28;20059;-80
2022/05/31 06:14:51;;;;;;;24.20;12.25;;;;;;;9.98;83.88;101103.69;5069676;28;20475;-80
2022/05/31 06:17:22;;;;;;;25.75;12.40;;;;;;;10.02;83.64;101099.84;5070064;28;20035;-80
2022/05/31 06:19:49;;;;;;;22.75;11.82;;;;;;;10.09;83.81;101090.41;5071888;28;20032;-81
2022/05/31 06:22:15;;;;;;;23.55;12.27;;;;;;;10.14;83.47;101099.00;5087242;28;20016;-80
2022/05/31 06:24:42;;;;;;;24.08;12.63;;;;;;;10.24;84.48;101098.38;5050381;28;20063;-80
2022/05/31 06:27:07;;;;;;;24.20;12.18;;;;;;;10.34;81.97;101102.19;5071611;28;20031;-80
2022/05/31 06:29:32;;;;;;;23.67;12.40;;;;;;;10.46;81.85;101095.13;5083248;28;20481;-80
2022/05/31 06:31:58;;;;;;;24.75;13.05;;;;;;;10.61;81.02;101107.47;5069986;28;20472;-80
2022/05/31 06:34:23;;;;;;;24.17;11.98;;;;;;;10.69;79.05;101114.16;5071110;28;20111;-81
2022/05/31 06:36:49;;;;;;;25.25;12.68;;;;;;;10.78;79.22;101106.31;5071389;28;20416;-81
2022/05/31 06:39:15;;;;;;;24.60;13.60;;;;;;;10.88;77.94;101111.03;5066919;28;20047;-80
2022/05/31 06:41:40;;;;;;;24.50;12.63;;;;;;;10.94;78.93;101107.94;5064536;28;20020;-80
2022/05/31 06:44:06;;;;;;;27.25;12.82;;;;;;;11.02;76.54;101119.00;5057817;28;20032;-81
2022/05/31 06:46:31;;;;;;;25.73;11.93;;;;;;;11.08;76.48;101113.16;5062396;28;20036;-81
2022/05/31 06:48:58;;;;;;;24.90;11.57;;;;;;;11.16;75.36;101118.03;5070174;28;20033;-81
2022/05/31 06:56:59;;;;;;;24.00;12.80;;;;;;;11.32;74.70;101120.47;5076965;28;20458;-81
2022/05/31 06:59:25;;;;;;;24.00;12.43;;;;;;;11.38;73.66;101117.34;5068247;28;20109;-81
2022/05/31 07:01:53;;;;;;;24.38;11.70;;;;;;;11.47;73.84;101115.81;5066977;28;20082;-81
2022/05/31 07:04:18;;;;;;;21.95;10.38;;;;;;;11.59;73.44;101105.97;5067132;28;20025;-81
2022/05/31 07:06:43;;;;;;;22.73;9.82;;;;;;;11.71;74.03;101113.13;5072580;28;20042;-81
2022/05/31 07:09:08;;;;;;;24.17;10.68;;;;;;;11.82;70.45;101105.13;5084268;28;20107;-81
2022/05/31 07:11:34;;;;;;;24.10;10.15;;;;;;;11.98;71.25;101104.03;5068989;28;20507;-81
2022/05/31 07:14:00;;;;;;;22.30;10.88;;;;;;;12.11;70.12;101107.50;5065989;28;20071;-81
2022/05/31 07:16:26;;;;;;;23.83;10.43;;;;;;;12.26;69.30;101104.63;5090837;28;20083;-81
2022/05/31 07:18:51;;;;;;;23.75;10.48;;;;;;;12.34;68.49;101103.06;5076165;28;20119;-81
2022/05/31 07:21:17;;;;;;;22.58;9.05;;;;;;;12.44;69.72;101105.03;5071711;28;20030;-81
2022/05/31 07:23:42;;;;;;;20.48;9.30;;;;;;;12.53;68.52;101096.22;5070664;28;20024;-81
2022/05/31 07:26:09;;;;;;;20.63;8.88;;;;;;;12.59;67.57;101104.72;5062848;28;20371;-82
2022/05/31 07:28:34;;;;;;;21.23;9.45;;;;;;;12.66;67.67;101101.53;5084829;28;20388;-81
2022/05/31 07:31:00;;;;;;;20.98;9.02;;;;;;;12.72;66.40;101099.22;5081364;28;20063;-81
2022/05/31 07:33:25;;;;;;;20.70;8.98;;;;;;;12.76;67.11;101095.28;5067901;28;20031;-81
2022/05/31 07:35:51;;;;;;;19.35;7.32;;;;;;;12.78;65.37;101103.25;5067842;28;20036;-81
2022/05/31 07:38:17;;;;;;;19.60;7.70;;;;;;;12.83;65.73;101101.06;5069677;28;20028;-81
2022/05/31 07:40:44;;;;;;;20.67;8.25;;;;;;;12.92;66.01;101103.03;5082937;28;20039;-81
2022/05/31 07:43:10;;;;;;;19.33;7.50;;;;;;;13.00;64.39;101097.03;5080197;28;20375;-81
2022/05/31 07:45:36;;;;;;;17.98;7.28;;;;;;;13.09;65.88;101095.44;5074550;28;20060;-81
2022/05/31 07:48:01;;;;;;;22.83;7.47;;;;;;;13.14;63.97;101095.94;5066563;28;20047;-81
2022/05/31 07:50:26;;;;;;;20.73;7.80;;;;;;;13.18;63.18;101097.41;5066973;28;20624;-81
2022/05/31 07:52:51;;;;;;;19.25;6.47;;;;;;;13.21;61.99;101097.16;5069851;28;20104;-81
2022/05/31 07:55:17;;;;;;;20.98;8.00;;;;;;;13.23;63.45;101095.16;5064374;28;20025;-86
2022/05/31 08:00:26;;;;;;;18.58;7.28;;;;;;;13.35;64.00;101084.41;5056211;28;20143;-82
2022/05/31 08:02:51;;;;;;;17.85;7.05;;;;;;;13.43;63.09;101085.50;5067917;28;20029;-82
2022/05/31 08:05:17;;;;;;;18.98;7.10;;;;;;;13.51;65.31;101084.00;5062751;28;20032;-82
2022/05/31 08:07:42;;;;;;;19.17;6.75;;;;;;;13.57;64.46;101087.09;5069685;28;20444;-82
2022/05/31 08:10:13;;;;;;;20.02;7.38;;;;;;;13.64;61.94;101087.41;5067791;28;20437;-81
2022/05/31 08:12:38;;;;;;;18.60;6.60;;;;;;;13.73;60.64;101083.94;5050023;28;20035;-80
2022/05/31 08:15:05;;;;;;;17.92;6.30;;;;;;;13.80;63.32;101073.50;5064990;28;20455;-82
2022/05/31 08:17:30;;;;;;;19.33;6.82;;;;;;;13.83;60.46;101075.94;5076791;28;20388;-81
2022/05/31 08:19:56;;;;;;;18.98;7.13;;;;;;;13.91;63.86;101075.28;5076031;28;20038;-82
2022/05/31 08:22:21;;;;;;;20.00;6.72;;;;;;;14.00;64.66;101071.84;5074164;28;20468;-82
2022/05/31 08:24:46;;;;;;;17.40;7.07;;;;;;;14.04;61.86;101072.41;5077488;28;20074;-81
2022/05/31 08:27:13;;;;;;;18.20;6.78;;;;;;;14.10;62.81;101070.06;5075489;28;20027;-81
2022/05/31 08:29:39;;;;;;;18.55;6.65;;;;;;;14.18;62.74;101071.25;5064663;28;20024;-82
2022/05/31 08:32:05;;;;;;;18.30;6.90;;;;;;;14.20;61.55;101075.53;5065193;28;20068;-82
2022/05/31 08:34:30;;;;;;;18.40;7.15;;;;;;;14.29;63.74;101071.19;5059489;28;20064;-81
2022/05/31 08:36:56;;;;;;;19.92;6.85;;;;;;;14.40;63.30;101076.53;5065670;28;20498;-82
2022/05/31 08:39:22;;;;;;;21.05;7.43;;;;;;;14.46;64.01;101073.28;5062298;28;20028;-82
2022/05/31 08:41:51;;;;;;;20.13;8.00;;;;;;;14.51;60.36;101076.47;5054332;28;20036;-81
2022/05/31 08:44:39;;;;;;;17.05;6.57;;;;;;;14.61;62.49;101072.97;5070358;28;20900;-81
2022/05/31 08:47:36;;;;;;;19.23;7.57;;;;;;;14.63;62.93;101074.59;5071860;28;20029;-82
2022/05/31 08:53:14;;;;;;;19.50;7.10;;;;;;;14.75;59.42;101066.41;5069037;28;20035;-81
2022/05/31 08:58:47;;;;;;;19.52;7.43;;;;;;;14.71;59.80;101065.78;5069371;28;20094;-82
2022/05/31 09:01:17;;;;;;;20.15;6.93;;;;;;;14.73;58.73;101071.06;5070139;28;20421;-82
2022/05/31 09:03:56;;;;;;;18.65;7.65;;;;;;;14.75;60.33;101069.09;5073813;28;20036;-82
2022/05/31 09:06:27;;;;;;;17.85;6.55;;;;;;;14.81;61.30;101071.25;5062431;28;20439;-81
2022/05/31 09:09:09;;;;;;;22.60;8.05;;;;;;;14.88;58.29;101064.31;5078861;28;20433;-82
2022/05/31 09:11:54;;;;;;;17.27;6.70;;;;;;;14.80;59.47;101066.81;5069969;28;20119;-82
2022/05/31 09:14:28;;;;;;;17.25;6.38;;;;;;;14.75;60.49;101066.41;5070741;28;20081;-81
2022/05/31 09:17:05;;;;;;;18.20;6.70;;;;;;;14.80;58.89;101059.59;5068001;28;20336;-82
2022/05/31 09:19:46;;;;;;;21.45;7.05;;;;;;;14.86;60.97;101066.28;5070255;28;20134;-81
2022/05/31 09:22:11;;;;;;;18.67;7.07;;;;;;;14.91;60.03;101064.03;5066130;28;20032;-82
2022/05/31 09:24:44;;;;;;;20.40;6.90;;;;;;;14.97;60.76;101070.75;5078486;28;20138;-82
2022/05/31 09:27:37;;;;;;;21.40;7.95;;;;;;;15.06;60.86;101069.09;5064332;28;20028;-81
2022/05/31 09:30:03;;;;;;;20.83;7.57;;;;;;;15.09;59.21;101064.25;5069207;28;20028;-82
2022/05/31 09:32:43;;;;;;;20.02;8.30;;;;;;;15.11;58.07;101075.81;5063428;28;20033;-82
2022/05/31 09:35:42;;;;;;;21.10;9.32;;;;;;;15.07;57.20;101062.69;5074221;28;20025;-82
2022/05/31 09:38:30;;;;;;;19.37;7.43;;;;;;;15.12;58.96;101063.13;5062931;28;20029;-82
2022/05/31 09:41:18;;;;;;;17.80;7.40;;;;;;;15.07;59.07;101062.69;5080785;28;20560;-82
2022/05/31 09:43:50;;;;;;;19.67;7.53;;;;;;;15.06;60.95;101058.25;5075071;28;20074;-82
2022/05/31 09:46:34;;;;;;;19.42;7.55;;;;;;;15.07;60.69;101055.41;5070332;28;20036;-82
2022/05/31 09:49:08;;;;;;;18.70;6.80;;;;;;;15.15;60.29;101054.72;5072516;28;20025;-81
2022/05/31 09:51:42;;;;;;;19.92;8.02;;;;;;;15.30;60.78;101050.66;5069355;28;20055;-83
2022/05/31 09:57:06;;;;;;;17.25;6.40;;;;;;;15.27;58.21;101050.94;5074179;28;20042;-82
2022/05/31 09:59:34;;;;;;;18.77;6.85;;;;;;;15.29;58.28;101056.22;5071518;28;20069;-81
2022/05/31 10:02:17;;;;;;;18.85;7.43;;;;;;;15.32;58.49;101045.94;5073253;28;20033;-82
2022/05/31 10:04:43;;;;;;;18.77;6.70;;;;;;;15.48;58.34;101041.84;5083903;28;20028;-82
2022/05/31 10:07:08;;;;;;;19.25;6.10;;;;;;;15.62;59.68;101043.28;5074299;28;20116;-81
2022/05/31 10:09:48;;;;;;;19.83;7.22;;;;;;;15.72;57.35;101050.44;5071818;28;20032;-82
2022/05/31 10:12:19;;;;;;;19.77;7.43;;;;;;;15.76;58.14;101042.03;5067097;28;20048;-82
2022/05/31 10:14:49;;;;;;;18.88;7.30;;;;;;;15.75;57.27;101041.16;5070853;28;20498;-82
2022/05/31 10:17:29;;;;;;;21.15;7.65;;;;;;;15.72;54.66;101038.72;5063664;28;20035;-82
2022/05/31 10:20:13;;;;;;;19.35;6.80;;;;;;;15.68;58.46;101038.19;5070268;28;20032;-82
2022/05/31 10:22:59;;;;;;;18.88;7.15;;;;;;;15.63;58.33;101040.44;5077184;28;20060;-82
2022/05/31 10:25:26;;;;;;;18.52;7.25;;;;;;;15.58;58.25;101040.03;5073517;28;20066;-82
2022/05/31 10:28:00;;;;;;;21.58;7.45;;;;;;;15.53;59.96;101048.56;5072393;28;20040;-82
2022/05/31 10:30:27;;;;;;;21.25;7.18;;;;;;;15.56;59.14;101039.28;5075270;28;20127;-82
2022/05/31 10:32:56;;;;;;;19.33;7.20;;;;;;;15.61;58.78;101045.16;5068498;28;20025;-82
2022/05/31 10:35:29;;;;;;;19.13;7.22;;;;;;;15.62;56.78;101054.13;5080263;28;20016;-81
2022/05/31 10:38:17;;;;;;;18.75;7.60;;;;;;;15.55;57.21;101051.13;5072361;28;20032;-82
2022/05/31 10:40:54;;;;;;;20.98;7.22;;;;;;;15.56;57.47;101039.28;5079472;28;20103;-82
2022/05/31 10:43:28;;;;;;;19.42;7.55;;;;;;;15.53;58.81;101044.97;5069380;28;20089;-82
2022/05/31 10:45:55;;;;;;;19.80;7.50;;;;;;;15.53;57.44;101050.41;5068368;28;20028;-82
2022/05/31 10:48:21;;;;;;;18.58;7.30;;;;;;;15.52;57.33;101037.84;5068133;28;20016;-87
2022/05/31 10:50:55;;;;;;;18.27;7.18;;;;;;;15.49;57.97;101048.97;5081828;28;20038;-87
2022/05/31 10:53:44;;;;;;;20.40;8.52;;;;;;;15.48;58.21;101045.41;5069441;28;20031;-88
2022/05/31 10:56:48;;;;;;;19.60;7.77;;;;;;;15.43;57.22;101044.97;5073976;28;20367;-87
2022/05/31 10:59:35;;;;;;;18.48;7.63;;;;;;;15.38;58.04;101050.81;5043019;28;20045;-87
2022/05/31 11:02:29;;;;;;;19.25;7.07;;;;;;;15.36;58.97;101041.97;5069718;28;20047;-87
2022/05/31 11:04:59;;;;;;;18.15;6.32;;;;;;;15.31;60.32;101038.81;5079580;28;20490;-87
2022/05/31 11:07:34;;;;;;;24.17;7.68;;;;;;;15.31;59.55;101049.63;5071079;28;20020;-86
2022/05/31 11:13:22;;;;;;;20.42;7.35;;;;;;;15.33;61.19;101052.22;5025502;28;20192;-87
2022/05/31 11:15:56;;;;;;;19.13;6.85;;;;;;;15.30;59.47;101050.66;5013835;28;20037;-87
2022/05/31 11:18:53;;;;;;;19.35;8.25;;;;;;;15.33;59.10;101052.22;5018890;28;20029;-87
2022/05/31 11:21:54;;;;;;;18.00;6.60;;;;;;;15.36;60.04;101043.84;5028124;28;20033;-87
2022/05/31 11:24:25;;;;;;;21.63;8.02;;;;;;;15.40;57.63;101049.81;5029886;28;20439;-87
2022/05/31 11:27:24;;;;;;;20.13;6.80;;;;;;;15.41;58.50;101048.81;5024218;28;20479;-87
2022/05/31 11:30:21;;;;;;;19.13;6.65;;;;;;;15.45;59.76;101048.41;5026360;28;20429;-87
2022/05/31 11:33:08;;;;;;;19.50;8.05;;;;;;;15.48;56.84;101053.53;5021534;28;20037;-86
2022/05/31 11:35:56;;;;;;;20.85;7.80;;;;;;;15.55;57.67;101051.13;5022938;28;20025;-88
2022/05/31 11:38:49;;;;;;;17.75;6.75;;;;;;;15.62;56.97;101041.44;5026198;28;20041;-85
2022/05/31 11:41:28;;;;;;;19.42;7.20;;;;;;;15.77;56.97;101039.19;5029684;28;20025;-87
2022/05/31 11:44:38;;;;;;;17.15;6.90;;;;;;;15.90;57.84;101039.78;5029080;28;20036;-87
2022/05/31 11:47:37;;;;;;;18.00;6.90;;;;;;;16.00;56.69;101053.34;5009108;28;20057;-87
2022/05/31 11:50:34;;;;;;;17.20;6.40;;;;;;;15.98;53.48;101039.06;5002988;28;20029;-87
2022/05/31 11:53:35;;;;;;;14.20;5.35;;;;;;;15.94;53.60;101055.75;4987742;28;20140;-88
2022/05/31 11:56:06;;;;;;;13.98;5.10;;;;;;;15.89;54.73;101042.63;5007168;28;20072;-88
2022/05/31 11:58:47;;;;;;;20.60;6.90;;;;;;;15.87;56.65;101044.63;5008709;28;20456;-87
2022/05/31 12:01:57;;;;;;;14.27;5.00;;;;;;;15.89;56.00;101053.47;4990378;28;20453;-86
2022/05/31 12:04:35;;;;;;;10.43;4.25;;;;;;;15.89;50.94;101058.91;4996854;28;20485;-87